Time;durP1;ratioP1;P1;durP2;ratioP2;P2;SDS_P1;SDS_P2;PMS_P1;PMS_P2;Temp;Humidity;BMP_temperature;BMP_pressure;BME280_temperature;BME280_humidity;BME280_pressure;Samples;Min_cycle;Max_cycle;Signal;HPM_P1;HPM_P2
2022/12/24 00:00:39;;;;;;;27.50;13.10;;;4.60;99.90;;;;;;5001660;28;20230;-82
2022/12/24 00:03:06;;;;;;;30.20;13.87;;;4.60;99.90;;;;;;4994764;28;20313;-84
2022/12/24 00:05:33;;;;;;;29.53;13.73;;;4.60;99.90;;;;;;4997234;28;20247;-83
2022/12/24 00:08:00;;;;;;;26.17;12.90;;;4.70;99.90;;;;;;5002682;28;20805;-80
2022/12/24 00:10:28;;;;;;;27.20;12.87;;;4.60;99.90;;;;;;5003391;28;20230;-81
2022/12/24 00:12:55;;;;;;;31.17;14.17;;;4.60;99.90;;;;;;5004127;28;20235;-80
2022/12/24 00:15:22;;;;;;;51.10;14.50;;;4.70;99.90;;;;;;5000874;28;20226;-81
2022/12/24 00:17:49;;;;;;;45.37;14.27;;;4.60;99.90;;;;;;4997218;28;20230;-81
2022/12/24 00:20:16;;;;;;;30.03;14.07;;;4.60;99.90;;;;;;5003971;28;20218;-81
2022/12/24 00:22:42;;;;;;;27.43;13.10;;;4.60;99.90;;;;;;5004091;28;20237;-82
2022/12/24 00:25:09;;;;;;;28.00;12.80;;;4.60;99.90;;;;;;4999449;28;20690;-81
2022/12/24 00:27:37;;;;;;;25.80;12.50;;;4.60;99.90;;;;;;5000527;28;20231;-82
2022/12/24 00:30:05;;;;;;;35.80;13.20;;;4.60;99.90;;;;;;5003989;28;20227;-84
2022/12/24 00:32:32;;;;;;;58.40;14.40;;;4.50;99.90;;;;;;5001139;28;20229;-81
2022/12/24 00:34:58;;;;;;;25.43;13.13;;;4.50;99.90;;;;;;5011044;28;20222;-81
2022/12/24 00:37:25;;;;;;;27.73;13.03;;;4.60;99.90;;;;;;5001418;28;20225;-85
2022/12/24 00:39:52;;;;;;;44.20;14.10;;;4.60;99.90;;;;;;5003562;28;20254;-83
2022/12/24 00:42:19;;;;;;;25.87;12.57;;;4.60;99.90;;;;;;5006008;28;20254;-81
2022/12/24 00:44:47;;;;;;;29.77;13.53;;;4.60;99.90;;;;;;4996888;28;20235;-82
2022/12/24 00:47:13;;;;;;;33.63;13.87;;;4.60;99.90;;;;;;5001657;28;20225;-82
2022/12/24 00:49:40;;;;;;;28.10;13.03;;;4.50;99.90;;;;;;5000594;28;20226;-81
2022/12/24 00:52:07;;;;;;;29.47;13.67;;;4.50;99.90;;;;;;4998923;28;20261;-81
2022/12/24 00:54:34;;;;;;;28.83;12.90;;;4.50;99.90;;;;;;4997461;28;20615;-82
2022/12/24 00:57:01;;;;;;;28.27;12.83;;;4.50;99.90;;;;;;4992005;28;20241;-81
2022/12/24 00:59:28;;;;;;;28.67;13.03;;;4.50;99.90;;;;;;4994753;28;20234;-84
2022/12/24 01:01:56;;;;;;;34.23;14.00;;;4.50;99.90;;;;;;4991543;28;20293;-80
2022/12/24 01:07:07;;;;;;;27.77;13.17;;;4.50;99.90;;;;;;4993348;28;20269;-81
2022/12/24 01:09:34;;;;;;;39.33;13.70;;;4.50;99.90;;;;;;4997415;28;20233;-81
2022/12/24 01:12:00;;;;;;;27.10;12.93;;;4.60;99.90;;;;;;4997064;28;20224;-82
2022/12/24 01:14:27;;;;;;;28.67;13.10;;;4.60;99.90;;;;;;4999048;28;20238;-82
2022/12/24 01:16:55;;;;;;;31.83;13.63;;;4.50;99.90;;;;;;4998871;28;20618;-80
2022/12/24 01:19:22;;;;;;;30.17;12.97;;;4.50;99.90;;;;;;4998807;28;20241;-80
2022/12/24 01:21:49;;;;;;;31.70;13.70;;;4.60;99.90;;;;;;5002139;28;20224;-84
2022/12/24 01:24:16;;;;;;;30.50;13.07;;;4.50;99.90;;;;;;4991354;28;20238;-82
2022/12/24 01:26:42;;;;;;;40.13;13.30;;;4.60;99.90;;;;;;4998276;28;20238;-80
2022/12/24 01:29:09;;;;;;;33.13;13.27;;;4.50;99.90;;;;;;4993742;28;20601;-80
2022/12/24 01:31:36;;;;;;;26.20;12.73;;;4.50;99.90;;;;;;4993888;28;20223;-83
2022/12/24 01:34:04;;;;;;;27.13;12.23;;;4.60;99.90;;;;;;4997114;28;20227;-81
2022/12/24 01:36:31;;;;;;;26.00;12.57;;;4.60;99.90;;;;;;4998375;28;20248;-80
2022/12/24 01:38:58;;;;;;;27.40;12.67;;;4.60;99.90;;;;;;4998882;28;20299;-82
2022/12/24 01:44:18;;;;;;;36.23;13.17;;;4.60;99.90;;;;;;4989668;28;20252;-80
2022/12/24 01:46:45;;;;;;;28.93;12.30;;;4.60;99.90;;;;;;4997807;28;20223;-81
2022/12/24 01:49:15;;;;;;;25.73;11.83;;;4.60;99.90;;;;;;5003216;28;20259;-80
2022/12/24 01:51:46;;;;;;;26.40;12.37;;;4.50;99.90;;;;;;4999753;28;20210;-81
2022/12/24 01:54:18;;;;;;;32.53;13.60;;;4.50;99.90;;;;;;4995833;28;20664;-83
2022/12/24 01:56:48;;;;;;;29.67;12.27;;;4.50;99.90;;;;;;4994721;28;20231;-80
2022/12/24 01:59:19;;;;;;;36.60;12.97;;;4.50;99.90;;;;;;4999088;28;20742;-82
2022/12/24 02:01:47;;;;;;;27.43;12.30;;;4.40;99.90;;;;;;4998178;28;20227;-82
2022/12/24 02:04:22;;;;;;;29.70;12.60;;;4.40;99.90;;;;;;4997718;28;20230;-82
2022/12/24 02:06:49;;;;;;;23.30;11.77;;;4.40;99.90;;;;;;4998034;28;20230;-83
2022/12/24 02:09:16;;;;;;;33.87;12.37;;;4.40;99.90;;;;;;4999685;28;20234;-83
2022/12/24 02:11:43;;;;;;;32.03;11.97;;;4.30;99.90;;;;;;4999227;28;20230;-81
2022/12/24 02:14:11;;;;;;;30.83;12.50;;;4.30;99.90;;;;;;4994498;28;20226;-83
2022/12/24 02:16:47;;;;;;;41.57;12.93;;;4.40;99.90;;;;;;4997650;28;20313;-81
2022/12/24 02:19:50;;;;;;;55.53;13.07;;;4.30;99.90;;;;;;4996497;28;20214;-81
2022/12/24 02:22:25;;;;;;;29.77;12.40;;;4.30;99.90;;;;;;4997463;28;20311;-82
2022/12/24 02:25:25;;;;;;;25.57;11.43;;;4.40;99.90;;;;;;4998288;28;20256;-82
2022/12/24 02:27:57;;;;;;;33.23;11.63;;;4.40;99.90;;;;;;4981396;28;20840;-84
2022/12/24 02:30:31;;;;;;;29.47;11.97;;;4.40;99.90;;;;;;4998765;28;20229;-82
2022/12/24 02:33:11;;;;;;;28.13;11.30;;;4.40;99.90;;;;;;5003123;28;20229;-81
2022/12/24 02:35:46;;;;;;;26.87;11.40;;;4.50;99.90;;;;;;4992116;28;20230;-82
2022/12/24 02:38:17;;;;;;;47.27;12.20;;;4.50;99.90;;;;;;5006004;28;20229;-81
2022/12/24 02:40:50;;;;;;;27.97;11.77;;;4.50;99.90;;;;;;5002555;28;20317;-82
2022/12/24 02:43:23;;;;;;;61.70;12.67;;;4.50;99.90;;;;;;4998257;28;20299;-82
2022/12/24 02:45:56;;;;;;;25.17;11.77;;;4.50;99.90;;;;;;5000538;28;20490;-82
2022/12/24 02:48:25;;;;;;;31.23;11.60;;;4.50;99.90;;;;;;4997083;28;20524;-83
2022/12/24 02:51:02;;;;;;;25.77;11.70;;;4.50;99.90;;;;;;4999265;28;20850;-82
2022/12/24 02:53:29;;;;;;;25.03;11.10;;;4.50;99.90;;;;;;4997749;28;20766;-84
2022/12/24 02:56:32;;;;;;;26.10;11.53;;;4.50;99.90;;;;;;4996916;28;20284;-84
2022/12/24 02:59:17;;;;;;;24.30;10.53;;;4.50;99.90;;;;;;4993287;28;20288;-84
2022/12/24 03:01:54;;;;;;;31.70;11.20;;;4.50;99.90;;;;;;4999325;28;20736;-81
2022/12/24 03:04:39;;;;;;;27.60;10.73;;;4.50;99.90;;;;;;4996308;28;20488;-85
2022/12/24 03:07:13;;;;;;;32.50;11.37;;;4.50;99.90;;;;;;4997516;28;20405;-82
2022/12/24 03:09:56;;;;;;;33.27;12.67;;;4.50;99.90;;;;;;4997654;28;20705;-81
2022/12/24 03:12:29;;;;;;;25.93;10.77;;;4.50;99.90;;;;;;4997577;28;20226;-80
2022/12/24 03:14:57;;;;;;;54.27;13.07;;;4.50;99.90;;;;;;4997487;28;20226;-82
2022/12/24 03:17:26;;;;;;;29.37;10.80;;;4.50;99.90;;;;;;5002421;28;20248;-83
2022/12/24 03:19:54;;;;;;;28.23;11.40;;;4.60;99.90;;;;;;4996019;28;20229;-83
2022/12/24 03:22:23;;;;;;;39.47;11.33;;;4.60;99.90;;;;;;4999689;28;20302;-82
2022/12/24 03:24:50;;;;;;;23.10;9.57;;;4.60;99.90;;;;;;4996867;28;20228;-82
2022/12/24 03:27:17;;;;;;;22.60;10.37;;;4.60;99.90;;;;;;4998784;28;20304;-81
2022/12/24 03:29:45;;;;;;;38.30;10.73;;;4.60;99.90;;;;;;4998577;28;20309;-83
2022/12/24 03:32:12;;;;;;;38.47;10.80;;;4.60;99.90;;;;;;5000134;28;20226;-82
2022/12/24 03:34:40;;;;;;;24.60;10.03;;;4.60;99.90;;;;;;4993629;28;20256;-81
2022/12/24 03:37:07;;;;;;;31.00;10.37;;;4.60;99.90;;;;;;4992331;28;20226;-81
2022/12/24 03:39:34;;;;;;;24.37;10.07;;;4.60;99.90;;;;;;4990420;28;20227;-81
2022/12/24 03:42:00;;;;;;;39.67;11.27;;;4.60;99.90;;;;;;4999322;28;20226;-81
2022/12/24 03:44:27;;;;;;;42.53;11.03;;;4.60;99.90;;;;;;4995564;28;20953;-82
2022/12/24 03:46:54;;;;;;;24.13;9.57;;;4.60;99.90;;;;;;5004075;28;20218;-81
2022/12/24 03:49:21;;;;;;;24.53;10.47;;;4.60;99.90;;;;;;5004722;28;20226;-83
2022/12/24 03:51:50;;;;;;;29.17;9.30;;;4.60;99.90;;;;;;5000536;28;20832;-82
2022/12/24 03:54:16;;;;;;;16.97;8.77;;;4.50;99.90;;;;;;5000989;28;20223;-82
2022/12/24 03:56:43;;;;;;;21.03;9.53;;;4.60;99.90;;;;;;5002653;28;20223;-81
2022/12/24 03:59:10;;;;;;;34.50;9.63;;;4.60;99.90;;;;;;5004748;28;20238;-81
2022/12/24 04:01:37;;;;;;;22.07;10.20;;;4.60;99.90;;;;;;5011487;28;20698;-82
2022/12/24 04:04:03;;;;;;;19.67;9.37;;;4.50;99.90;;;;;;5002878;28;20223;-82
2022/12/24 04:06:30;;;;;;;16.27;9.27;;;4.50;99.90;;;;;;4999602;28;20226;-82
2022/12/24 04:09:03;;;;;;;117.67;14.87;;;4.60;99.90;;;;;;5003645;28;20296;-81
2022/12/24 04:11:33;;;;;;;102.47;13.03;;;4.60;99.90;;;;;;5000336;28;20890;-81
2022/12/24 04:14:00;;;;;;;24.53;9.40;;;4.60;99.90;;;;;;5004906;28;20234;-82
2022/12/24 04:16:27;;;;;;;17.93;9.13;;;4.60;99.90;;;;;;5001633;28;20239;-82
2022/12/24 04:18:54;;;;;;;41.60;10.37;;;4.60;99.90;;;;;;5004932;28;20845;-81
2022/12/24 04:21:21;;;;;;;25.03;9.80;;;4.70;99.90;;;;;;5002596;28;20218;-81
2022/12/24 04:23:48;;;;;;;18.83;9.10;;;4.60;99.90;;;;;;5002263;28;20234;-78
2022/12/24 04:26:17;;;;;;;19.90;9.70;;;4.60;99.90;;;;;;5007810;28;20215;-80
2022/12/24 04:28:43;;;;;;;49.07;11.07;;;4.70;99.90;;;;;;5006744;28;20252;-78
2022/12/24 04:31:12;;;;;;;35.40;10.20;;;4.60;99.90;;;;;;5009219;28;20707;-79
2022/12/24 04:33:39;;;;;;;15.17;8.40;;;4.70;99.90;;;;;;5004185;28;20629;-78
2022/12/24 04:36:07;;;;;;;19.90;9.93;;;4.70;99.90;;;;;;5005978;28;20222;-78
2022/12/24 04:38:34;;;;;;;16.93;8.80;;;4.70;99.90;;;;;;5004874;28;20226;-78
2022/12/24 04:41:02;;;;;;;26.80;9.67;;;4.70;99.90;;;;;;5005278;28;20265;-79
2022/12/24 04:43:30;;;;;;;21.73;9.00;;;4.70;99.90;;;;;;5010633;28;20253;-78
2022/12/24 04:45:57;;;;;;;18.03;8.70;;;4.70;99.90;;;;;;5019846;28;20238;-79
2022/12/24 04:48:24;;;;;;;18.53;9.83;;;4.70;99.90;;;;;;5006922;28;20240;-79
2022/12/24 04:50:51;;;;;;;20.80;9.37;;;4.80;99.90;;;;;;5006613;28;20224;-79
2022/12/24 04:53:17;;;;;;;26.90;9.60;;;4.70;99.90;;;;;;5004689;28;20233;-78
2022/12/24 04:55:45;;;;;;;19.03;9.13;;;4.70;99.90;;;;;;5001597;28;20219;-79
2022/12/24 04:58:12;;;;;;;18.00;8.13;;;4.70;99.90;;;;;;5003486;28;20218;-80
2022/12/24 05:00:41;;;;;;;30.33;10.00;;;4.80;99.90;;;;;;5006194;28;20253;-80
2022/12/24 05:03:08;;;;;;;15.43;8.67;;;4.80;99.90;;;;;;4992632;28;20252;-78
2022/12/24 05:05:35;;;;;;;79.73;12.37;;;4.80;99.90;;;;;;4998911;28;20222;-78
2022/12/24 05:08:02;;;;;;;25.53;9.57;;;4.80;99.90;;;;;;5002600;28;20230;-78
2022/12/24 05:10:29;;;;;;;15.53;8.63;;;4.80;99.90;;;;;;5004681;28;20227;-78
2022/12/24 05:12:55;;;;;;;30.80;10.07;;;4.80;99.90;;;;;;5004382;28;20234;-79
2022/12/24 05:15:22;;;;;;;15.27;8.63;;;4.80;99.90;;;;;;5002504;28;20371;-80
2022/12/24 05:17:50;;;;;;;17.53;9.27;;;4.80;99.90;;;;;;5001686;28;21093;-79
2022/12/24 05:20:17;;;;;;;15.17;7.83;;;4.80;99.90;;;;;;5004493;28;20230;-79
2022/12/24 05:28:18;;;;;;;13.60;7.97;;;4.70;99.90;;;;;;5005205;28;20215;-80
2022/12/24 05:30:45;;;;;;;23.17;8.40;;;4.70;99.90;;;;;;4998035;28;20595;-79
2022/12/24 05:33:13;;;;;;;16.43;8.80;;;4.70;99.90;;;;;;4994374;28;21063;-79
2022/12/24 05:35:40;;;;;;;14.33;7.93;;;4.70;99.90;;;;;;4988228;28;20225;-80
2022/12/24 05:38:07;;;;;;;19.57;8.00;;;4.70;99.90;;;;;;5012693;28;20314;-79
2022/12/24 05:40:33;;;;;;;13.93;7.73;;;4.60;99.90;;;;;;4998286;28;20277;-79
2022/12/24 05:43:00;;;;;;;13.23;7.50;;;4.70;99.90;;;;;;4997865;28;20301;-80
2022/12/24 05:45:28;;;;;;;16.10;7.73;;;4.70;99.90;;;;;;5000071;28;20236;-80
2022/12/24 05:47:54;;;;;;;13.57;7.30;;;4.60;99.90;;;;;;4998731;28;20229;-81
2022/12/24 05:50:24;;;;;;;11.90;7.00;;;4.60;99.90;;;;;;4998827;28;20226;-81
2022/12/24 05:53:04;;;;;;;13.67;7.00;;;4.60;99.90;;;;;;5000002;28;20226;-81
2022/12/24 05:55:31;;;;;;;12.53;6.97;;;4.60;99.90;;;;;;4999100;28;20214;-79
2022/12/24 05:57:58;;;;;;;9.37;6.43;;;4.60;99.90;;;;;;5002152;28;20236;-80
2022/12/24 06:00:24;;;;;;;11.60;7.00;;;4.60;99.90;;;;;;4989986;28;20313;-80
2022/12/24 06:02:53;;;;;;;13.40;6.40;;;4.60;99.90;;;;;;4995013;28;20277;-79
2022/12/24 06:05:19;;;;;;;16.93;6.87;;;4.60;99.90;;;;;;4988661;28;20222;-80
2022/12/24 06:07:48;;;;;;;14.40;6.87;;;4.60;99.90;;;;;;5006062;28;20754;-80
2022/12/24 06:10:15;;;;;;;15.27;7.03;;;4.60;99.90;;;;;;4990291;28;20921;-81
2022/12/24 06:12:42;;;;;;;11.57;6.53;;;4.60;99.90;;;;;;4992050;28;20238;-80
2022/12/24 06:15:09;;;;;;;12.47;6.67;;;4.60;99.90;;;;;;4993891;28;20829;-81
2022/12/24 06:17:36;;;;;;;23.80;7.27;;;4.60;99.90;;;;;;4988280;28;20624;-81
2022/12/24 06:20:04;;;;;;;10.93;5.93;;;4.60;99.90;;;;;;4996420;28;20769;-81
2022/12/24 06:22:31;;;;;;;10.87;5.77;;;4.60;99.90;;;;;;4994076;28;20226;-80
2022/12/24 06:24:59;;;;;;;14.83;6.47;;;4.60;99.90;;;;;;4995199;28;21066;-80
2022/12/24 06:27:26;;;;;;;29.17;6.93;;;4.60;99.90;;;;;;5008006;28;20382;-80
2022/12/24 06:29:52;;;;;;;14.10;5.97;;;4.60;99.90;;;;;;4999405;28;20231;-81
2022/12/24 06:32:20;;;;;;;10.33;5.80;;;4.50;99.90;;;;;;4998423;28;20229;-82
2022/12/24 06:34:46;;;;;;;10.93;5.70;;;4.50;99.90;;;;;;5011454;28;20236;-80
2022/12/24 06:37:17;;;;;;;16.27;5.87;;;4.50;99.90;;;;;;4991533;28;20215;-81
2022/12/24 06:39:44;;;;;;;12.97;5.37;;;4.50;99.90;;;;;;4997897;28;20391;-81
2022/12/24 06:42:14;;;;;;;28.37;6.07;;;4.50;99.90;;;;;;4995797;28;20230;-79
2022/12/24 06:44:41;;;;;;;12.77;5.50;;;4.50;99.90;;;;;;4993468;28;20246;-81
2022/12/24 06:47:07;;;;;;;7.13;5.07;;;4.50;99.90;;;;;;4995541;28;20217;-79
2022/12/24 06:49:34;;;;;;;36.37;6.47;;;4.50;99.90;;;;;;4996434;28;20229;-80
2022/12/24 06:52:01;;;;;;;17.33;5.40;;;4.50;99.90;;;;;;4997589;28;20254;-80
2022/12/24 06:54:28;;;;;;;86.17;9.67;;;4.50;99.90;;;;;;4992750;28;20606;-80
2022/12/24 06:56:55;;;;;;;9.53;5.37;;;4.50;99.90;;;;;;4995577;28;20607;-80
2022/12/24 06:59:23;;;;;;;21.83;5.73;;;4.50;99.90;;;;;;4998716;28;20249;-79
2022/12/24 07:01:50;;;;;;;7.97;4.40;;;4.50;99.90;;;;;;4993587;28;20226;-79
2022/12/24 07:04:17;;;;;;;7.43;3.97;;;4.50;99.90;;;;;;4991547;28;20754;-79
2022/12/24 07:06:44;;;;;;;48.80;6.50;;;4.50;99.90;;;;;;5001960;28;20324;-79
2022/12/24 07:09:12;;;;;;;8.87;4.60;;;4.50;99.90;;;;;;4998039;28;20235;-80
2022/12/24 07:11:39;;;;;;;12.13;4.43;;;4.50;99.90;;;;;;4998783;28;20311;-79
2022/12/24 07:14:06;;;;;;;10.57;4.53;;;4.50;99.90;;;;;;4997005;28;20229;-81
2022/12/24 07:16:34;;;;;;;6.73;4.70;;;4.50;99.90;;;;;;4996219;28;20234;-80
2022/12/24 07:19:00;;;;;;;19.70;6.17;;;4.40;99.90;;;;;;5000897;28;20225;-80
2022/12/24 07:21:27;;;;;;;8.47;4.60;;;4.40;99.90;;;;;;5003744;28;20228;-80
2022/12/24 07:23:54;;;;;;;7.47;4.67;;;4.40;99.90;;;;;;5003440;28;20226;-80
2022/12/24 07:26:20;;;;;;;8.33;4.60;;;4.40;99.90;;;;;;5002225;28;20231;-80
2022/12/24 07:28:47;;;;;;;16.13;5.30;;;4.40;99.90;;;;;;5002321;28;20223;-79
2022/12/24 07:31:14;;;;;;;9.47;4.53;;;4.40;99.90;;;;;;5006299;28;20228;-80
2022/12/24 07:33:42;;;;;;;7.50;4.17;;;4.40;99.90;;;;;;4996912;28;20235;-79
2022/12/24 07:36:14;;;;;;;7.53;4.73;;;4.40;99.90;;;;;;5002745;28;20228;-79
2022/12/24 07:38:41;;;;;;;7.67;4.73;;;4.40;99.90;;;;;;5000981;28;20222;-80
2022/12/24 07:41:07;;;;;;;10.03;4.40;;;4.40;99.90;;;;;;5005352;28;20875;-79
2022/12/24 07:43:34;;;;;;;7.07;4.37;;;4.40;99.90;;;;;;4997918;28;20954;-78
2022/12/24 07:46:01;;;;;;;10.30;4.93;;;4.40;99.90;;;;;;5003321;28;20228;-79
2022/12/24 07:48:31;;;;;;;11.33;4.97;;;4.40;99.90;;;;;;5004044;28;20230;-79
2022/12/24 07:51:00;;;;;;;7.13;4.53;;;4.40;99.90;;;;;;5003082;28;20233;-80
2022/12/24 07:53:28;;;;;;;6.50;4.10;;;4.40;99.90;;;;;;5000515;28;20598;-79
2022/12/24 07:55:55;;;;;;;6.60;4.30;;;4.40;99.90;;;;;;5002093;28;20236;-80
2022/12/24 07:58:22;;;;;;;7.00;5.00;;;4.40;99.90;;;;;;5004249;28;20762;-79
2022/12/24 08:00:49;;;;;;;7.17;4.47;;;4.40;99.90;;;;;;5004008;28;20218;-80
2022/12/24 08:03:18;;;;;;;8.73;4.27;;;4.40;99.90;;;;;;5001349;28;20311;-77
2022/12/24 08:05:45;;;;;;;51.10;7.03;;;4.40;99.90;;;;;;4998513;28;20351;-82
2022/12/24 08:08:13;;;;;;;8.20;4.57;;;4.40;99.90;;;;;;5003053;28;20237;-80
2022/12/24 08:10:40;;;;;;;37.40;7.10;;;4.40;99.90;;;;;;5006030;28;20236;-80
2022/12/24 08:13:09;;;;;;;8.07;4.50;;;4.40;99.90;;;;;;4995898;28;20222;-79
2022/12/24 08:15:36;;;;;;;62.17;8.47;;;4.40;99.90;;;;;;4993969;28;20273;-78
2022/12/24 08:18:04;;;;;;;503.60;36.20;;;4.50;99.90;;;;;;4997468;28;20743;-80
2022/12/24 08:20:31;;;;;;;529.43;36.07;;;4.50;99.90;;;;;;4995216;28;20225;-79
2022/12/24 08:22:57;;;;;;;6.77;4.37;;;4.50;99.90;;;;;;4999142;28;20214;-79
2022/12/24 08:25:25;;;;;;;5.93;4.40;;;4.50;99.90;;;;;;5001037;28;20279;-79
2022/12/24 08:27:52;;;;;;;9.23;4.70;;;4.50;99.90;;;;;;5002878;28;20715;-79
2022/12/24 08:30:19;;;;;;;66.80;8.20;;;4.60;99.90;;;;;;4984412;28;20252;-79
2022/12/24 08:32:45;;;;;;;19.50;5.17;;;4.60;99.90;;;;;;5003079;28;20223;-80
2022/12/24 08:35:12;;;;;;;36.30;5.93;;;4.60;99.90;;;;;;5000522;28;20342;-79
2022/12/24 08:37:38;;;;;;;20.40;5.17;;;4.60;99.90;;;;;;5000370;28;20226;-80
2022/12/24 08:40:06;;;;;;;6.30;4.40;;;4.60;99.90;;;;;;4999282;28;20714;-80
2022/12/24 08:42:34;;;;;;;5.27;4.17;;;4.60;99.90;;;;;;4998942;28;20230;-79
2022/12/24 08:45:01;;;;;;;23.07;5.20;;;4.60;99.90;;;;;;4998554;28;20251;-79
2022/12/24 08:47:28;;;;;;;31.27;5.70;;;4.60;99.90;;;;;;4998811;28;20231;-79
2022/12/24 08:49:54;;;;;;;9.63;4.07;;;4.60;99.90;;;;;;5002077;28;20718;-79
2022/12/24 08:52:21;;;;;;;8.07;4.37;;;4.70;99.90;;;;;;5005236;28;20226;-78
2022/12/24 08:54:48;;;;;;;10.43;4.57;;;4.70;99.90;;;;;;5000170;28;20227;-79
2022/12/24 08:57:14;;;;;;;32.97;5.37;;;4.70;99.90;;;;;;5002379;28;20232;-79
2022/12/24 08:59:47;;;;;;;64.03;8.03;;;4.70;99.90;;;;;;5000955;28;20274;-79
2022/12/24 09:02:14;;;;;;;17.87;4.70;;;4.70;99.90;;;;;;4996678;28;20307;-79
2022/12/24 09:04:40;;;;;;;7.50;3.90;;;4.70;99.90;;;;;;5002195;28;20609;-79
2022/12/24 09:07:07;;;;;;;5.10;3.93;;;4.80;99.90;;;;;;4994708;28;20222;-79
2022/12/24 09:09:34;;;;;;;11.83;4.40;;;4.80;99.90;;;;;;5006468;28;20829;-79
2022/12/24 09:12:02;;;;;;;10.80;4.67;;;4.80;99.90;;;;;;5004640;28;20229;-79
2022/12/24 09:14:28;;;;;;;5.93;3.93;;;4.80;99.90;;;;;;4999464;28;20251;-78
2022/12/24 09:16:58;;;;;;;6.37;4.27;;;4.80;99.90;;;;;;4998375;28;20222;-79
2022/12/24 09:19:25;;;;;;;7.00;4.33;;;4.90;99.90;;;;;;4997359;28;20311;-79
2022/12/24 09:21:51;;;;;;;5.67;4.27;;;4.90;99.90;;;;;;5014099;28;20220;-83
2022/12/24 09:24:18;;;;;;;6.10;4.00;;;4.90;99.90;;;;;;5003102;28;20226;-82
2022/12/24 09:26:48;;;;;;;6.23;4.27;;;4.90;99.90;;;;;;5004386;28;20341;-83
2022/12/24 09:29:15;;;;;;;6.03;4.00;;;4.90;99.90;;;;;;5006058;28;20696;-83
2022/12/24 09:31:42;;;;;;;5.87;4.40;;;4.90;99.90;;;;;;5006105;28;20771;-83
2022/12/24 09:34:10;;;;;;;21.93;4.93;;;5.00;99.90;;;;;;5008555;28;20663;-82
2022/12/24 09:36:36;;;;;;;5.97;4.27;;;4.90;99.90;;;;;;4999642;28;20473;-82
2022/12/24 09:39:03;;;;;;;6.63;4.50;;;4.90;99.90;;;;;;4998114;28;20238;-83
2022/12/24 09:41:44;;;;;;;6.97;4.37;;;4.90;99.90;;;;;;5006813;28;20603;-83
2022/12/24 09:44:30;;;;;;;7.47;4.17;;;5.00;99.90;;;;;;5005090;28;20331;-81
2022/12/24 09:47:00;;;;;;;5.60;4.60;;;5.00;99.90;;;;;;5007973;28;20227;-81
2022/12/24 09:49:37;;;;;;;7.27;4.47;;;5.10;99.90;;;;;;5006368;28;20229;-81
2022/12/24 09:52:10;;;;;;;4.30;3.83;;;5.00;99.90;;;;;;5003924;28;20227;-81
2022/12/24 09:54:41;;;;;;;4.03;3.30;;;5.00;99.90;;;;;;5003934;28;20300;-82
2022/12/24 09:57:16;;;;;;;4.97;3.50;;;5.00;99.90;;;;;;4991892;28;20230;-81
2022/12/24 09:59:45;;;;;;;5.57;4.33;;;5.00;99.90;;;;;;5005754;28;20309;-81
2022/12/24 10:02:16;;;;;;;4.87;4.03;;;5.00;99.90;;;;;;5018408;28;20233;-82
2022/12/24 10:04:46;;;;;;;7.57;4.50;;;5.00;99.90;;;;;;5004627;28;20233;-84
2022/12/24 10:07:28;;;;;;;5.30;4.13;;;5.00;99.90;;;;;;5003220;28;20231;-83
2022/12/24 10:10:03;;;;;;;6.77;4.43;;;5.00;99.90;;;;;;5002318;28;20286;-82
2022/12/24 10:12:38;;;;;;;6.67;4.43;;;5.00;99.90;;;;;;5004088;28;20302;-82
2022/12/24 10:15:15;;;;;;;6.47;4.63;;;5.00;99.90;;;;;;5000707;28;20734;-82
2022/12/24 10:17:52;;;;;;;5.47;4.43;;;5.10;99.90;;;;;;4997052;28;20302;-82
2022/12/24 10:20:41;;;;;;;4.33;3.90;;;5.10;99.90;;;;;;5000791;28;20357;-83
2022/12/24 10:23:17;;;;;;;28.97;5.80;;;5.10;99.90;;;;;;5001194;28;20666;-79
2022/12/24 10:25:48;;;;;;;5.83;4.50;;;5.20;99.90;;;;;;5003792;28;20277;-81
2022/12/24 10:28:18;;;;;;;5.83;4.13;;;5.20;99.90;;;;;;4997523;28;20225;-81
2022/12/24 10:30:48;;;;;;;7.70;4.90;;;5.20;99.90;;;;;;5012555;28;20230;-81
2022/12/24 10:33:20;;;;;;;5.37;4.13;;;5.20;99.90;;;;;;5001865;28;20228;-81
2022/12/24 10:35:52;;;;;;;5.93;5.03;;;5.20;99.90;;;;;;5018535;28;20286;-82
2022/12/24 10:38:19;;;;;;;6.63;5.10;;;5.20;99.90;;;;;;5003097;28;20225;-82
2022/12/24 10:40:48;;;;;;;8.30;4.90;;;5.20;99.90;;;;;;4998692;28;20944;-82
2022/12/24 10:43:16;;;;;;;6.53;5.07;;;5.30;99.90;;;;;;4999692;28;20235;-82
2022/12/24 10:45:46;;;;;;;6.43;5.07;;;5.30;99.90;;;;;;5005648;28;20228;-82
2022/12/24 10:48:21;;;;;;;8.07;5.70;;;5.40;99.90;;;;;;5002142;28;20286;-82
2022/12/24 10:50:54;;;;;;;6.80;5.20;;;5.40;99.90;;;;;;5002289;28;20653;-82
2022/12/24 10:53:27;;;;;;;8.70;5.23;;;5.40;99.90;;;;;;4995378;28;20229;-82
2022/12/24 10:56:03;;;;;;;7.10;5.20;;;5.50;99.90;;;;;;5003761;28;20224;-81
2022/12/24 10:58:30;;;;;;;5.73;5.00;;;5.50;99.90;;;;;;5000383;28;20697;-82
2022/12/24 11:00:57;;;;;;;6.60;5.30;;;5.50;99.90;;;;;;5000111;28;20252;-82
2022/12/24 11:03:29;;;;;;;5.57;4.47;;;5.50;99.90;;;;;;4998283;28;20237;-82
2022/12/24 11:06:04;;;;;;;7.20;5.30;;;5.50;99.90;;;;;;5003664;28;20257;-83
2022/12/24 11:08:32;;;;;;;6.43;5.30;;;5.50;99.90;;;;;;5007023;28;20213;-82
2022/12/24 11:11:01;;;;;;;6.80;5.30;;;5.50;99.90;;;;;;5001125;28;20633;-82
2022/12/24 11:13:32;;;;;;;6.60;5.47;;;5.50;99.90;;;;;;4993087;28;20232;-81
2022/12/24 11:16:05;;;;;;;6.20;4.97;;;5.60;99.90;;;;;;5001710;28;20370;-82
2022/12/24 11:18:34;;;;;;;7.97;5.93;;;5.60;99.90;;;;;;5000096;28;20235;-82
2022/12/24 11:21:04;;;;;;;7.80;5.27;;;5.60;99.90;;;;;;5003088;28;20229;-82
2022/12/24 11:23:31;;;;;;;6.63;5.00;;;5.70;99.90;;;;;;4998323;28;20253;-82
2022/12/24 11:25:58;;;;;;;8.13;5.67;;;5.60;99.90;;;;;;5002624;28;20235;-82
2022/12/24 11:28:27;;;;;;;9.63;5.60;;;5.60;99.90;;;;;;5000261;28;20236;-82
2022/12/24 11:31:06;;;;;;;8.03;5.83;;;5.60;99.90;;;;;;4997929;28;20807;-83
2022/12/24 11:33:48;;;;;;;7.37;6.10;;;5.60;99.90;;;;;;4989736;28;20232;-83
2022/12/24 11:36:20;;;;;;;7.23;5.70;;;5.60;99.90;;;;;;4997518;28;20274;-81
2022/12/24 11:38:53;;;;;;;11.57;5.97;;;5.70;99.90;;;;;;5020682;28;20265;-81
2022/12/24 11:41:20;;;;;;;10.93;6.30;;;5.70;99.90;;;;;;4998340;28;20315;-81
2022/12/24 11:43:50;;;;;;;6.80;5.93;;;5.70;99.90;;;;;;5000287;28;20228;-81
2022/12/24 11:46:37;;;;;;;7.37;6.10;;;5.80;99.90;;;;;;5001445;28;20240;-81
2022/12/24 11:49:22;;;;;;;7.90;5.97;;;5.80;99.90;;;;;;4999793;28;20230;-81
2022/12/24 11:52:10;;;;;;;7.20;5.50;;;5.90;99.90;;;;;;4997763;28;20220;-81
2022/12/24 11:54:45;;;;;;;8.40;6.00;;;5.90;99.90;;;;;;5001527;28;20228;-81
2022/12/24 11:57:15;;;;;;;8.03;6.07;;;5.90;99.90;;;;;;4996186;28;20314;-84
2022/12/24 11:59:46;;;;;;;9.47;6.30;;;5.90;99.90;;;;;;5003435;28;20760;-83
2022/12/24 12:02:18;;;;;;;8.43;6.23;;;5.80;99.90;;;;;;5008398;28;20226;-81
2022/12/24 12:04:49;;;;;;;11.13;6.47;;;5.80;99.90;;;;;;4999141;28;20233;-83
2022/12/24 12:07:21;;;;;;;9.83;6.70;;;5.80;99.90;;;;;;4984435;28;20670;-83
2022/12/24 12:09:53;;;;;;;11.33;6.70;;;5.80;99.90;;;;;;5001675;28;20226;-83
2022/12/24 12:12:23;;;;;;;8.33;6.07;;;5.80;99.90;;;;;;5002182;28;20215;-83
2022/12/24 12:14:54;;;;;;;7.77;5.93;;;5.80;99.90;;;;;;5001342;28;20242;-83
2022/12/24 12:17:29;;;;;;;7.73;5.73;;;5.90;99.90;;;;;;5005703;28;20228;-83
2022/12/24 12:20:01;;;;;;;8.30;6.30;;;5.90;99.90;;;;;;5003788;28;20633;-83
2022/12/24 12:22:37;;;;;;;7.60;6.33;;;5.90;99.90;;;;;;5004270;28;20224;-83
2022/12/24 12:25:10;;;;;;;9.03;6.50;;;5.90;99.90;;;;;;5004505;28;20250;-83
2022/12/24 12:27:43;;;;;;;8.27;7.10;;;5.90;99.90;;;;;;4985240;28;20219;-82
2022/12/24 12:30:15;;;;;;;8.70;6.60;;;5.90;99.90;;;;;;5012590;28;20220;-82
2022/12/24 12:32:48;;;;;;;9.20;7.40;;;6.00;99.90;;;;;;5005091;28;20216;-82
2022/12/24 12:35:23;;;;;;;8.50;6.93;;;6.00;99.90;;;;;;5001742;28;20228;-82
2022/12/24 12:37:57;;;;;;;12.93;10.20;;;6.10;99.90;;;;;;5010936;28;20230;-83
2022/12/24 12:40:35;;;;;;;9.63;7.63;;;6.10;99.90;;;;;;5002635;28;20293;-82
2022/12/24 12:43:11;;;;;;;12.93;9.83;;;6.20;99.90;;;;;;5005113;28;20231;-82
2022/12/24 12:45:47;;;;;;;14.40;9.87;;;6.30;99.90;;;;;;5002086;28;20226;-82
2022/12/24 12:48:32;;;;;;;13.50;10.67;;;6.40;99.90;;;;;;5002192;28;20228;-82
2022/12/24 12:51:06;;;;;;;12.13;9.20;;;6.40;99.90;;;;;;5003349;28;20234;-82
2022/12/24 12:53:53;;;;;;;10.60;8.03;;;6.50;99.90;;;;;;5002122;28;20230;-82
2022/12/24 12:56:28;;;;;;;15.43;10.40;;;6.60;99.90;;;;;;4998112;28;20227;-83
2022/12/24 12:58:59;;;;;;;13.40;9.83;;;6.60;99.90;;;;;;5016937;28;20255;-83
2022/12/24 13:01:31;;;;;;;10.90;8.37;;;6.60;99.90;;;;;;5001248;28;20238;-83
2022/12/24 13:04:28;;;;;;;11.20;8.30;;;6.60;99.90;;;;;;4998129;28;20238;-83
2022/12/24 13:07:23;;;;;;;17.20;9.73;;;6.60;99.90;;;;;;5006584;28;20229;-83
2022/12/24 13:10:14;;;;;;;13.73;9.70;;;6.60;99.90;;;;;;5000282;28;20706;-83
2022/12/24 13:12:59;;;;;;;14.30;8.57;;;6.70;99.90;;;;;;4993934;28;20233;-82